createdAt,value
2019-01-05T00:00:28.499Z,3.73
2019-01-05T00:03:10.571Z,2.98
2019-01-05T00:06:15.566Z,3.27
2019-01-05T00:09:04.228Z,2.47
2019-01-05T00:12:02.640Z,2.30
2019-01-05T00:15:05.705Z,2.17
2019-01-05T00:18:11.536Z,1.53
2019-01-05T00:21:09.598Z,1.90
2019-01-05T00:23:59.516Z,1.30
2019-01-05T00:27:04.400Z,1.27
2019-01-05T00:29:50.253Z,1.90
2019-01-05T00:32:46.136Z,1.85
2019-01-05T00:36:02.409Z,1.77
2019-01-05T00:38:59.254Z,2.10
2019-01-05T00:41:55.380Z,1.72
2019-01-05T00:44:36.798Z,1.87
2019-01-05T00:47:28.540Z,2.47
2019-01-05T00:50:19.966Z,3.30
2019-01-05T00:53:09.614Z,2.77
2019-01-05T00:56:09.928Z,2.70
2019-01-05T00:58:56.596Z,3.30
2019-01-05T01:01:44.777Z,3.60
2019-01-05T01:04:33.068Z,3.22
2019-01-05T01:07:34.720Z,3.20
2019-01-05T01:10:36.698Z,3.20
2019-01-05T01:13:24.868Z,3.40
2019-01-05T01:16:13.265Z,2.95
2019-01-05T01:19:02.212Z,2.15
2019-01-05T01:22:03.727Z,2.40
2019-01-05T01:24:59.172Z,2.90
2019-01-05T01:27:51.877Z,2.00
2019-01-05T01:30:49.399Z,2.30
2019-01-05T01:33:43.927Z,1.50
2019-01-05T01:36:24.572Z,2.40
2019-01-05T01:39:43.677Z,1.30
2019-01-05T01:42:51.779Z,2.00
2019-01-05T01:45:50.972Z,1.10
2019-01-05T01:48:39.059Z,1.17
2019-01-05T01:51:35.523Z,2.22
2019-01-05T01:54:37.121Z,1.27
2019-01-05T01:57:34.650Z,1.50
2019-01-05T02:00:37.849Z,1.67
2019-01-05T02:03:32.878Z,2.15
2019-01-05T02:06:23.484Z,1.30
2019-01-05T02:09:21.132Z,1.75
2019-01-05T02:12:25.533Z,1.80
2019-01-05T02:15:19.251Z,1.12
2019-01-05T02:18:49.578Z,1.70
2019-01-05T02:22:19.164Z,1.20
2019-01-05T02:25:56.059Z,1.20
2019-01-05T02:29:50.491Z,1.60
2019-01-05T02:33:19.064Z,1.02
2019-01-05T02:36:53.177Z,1.10
2019-01-05T02:40:43.466Z,1.80
2019-01-05T02:44:32.204Z,1.10
2019-01-05T02:48:32.811Z,1.37
2019-01-05T02:52:10.160Z,1.60
2019-01-05T02:56:03.167Z,1.67
2019-01-05T03:00:03.616Z,1.87
2019-01-05T03:03:47.026Z,1.60
2019-01-05T03:07:14.952Z,1.40
2019-01-05T03:11:33.333Z,0.80
2019-01-05T03:15:26.347Z,1.42
2019-01-05T03:19:13.402Z,1.60
2019-01-05T03:23:14.740Z,1.43
2019-01-05T03:26:57.689Z,1.20
2019-01-05T03:30:49.535Z,1.20
2019-01-05T03:34:47.885Z,0.93
2019-01-05T03:38:47.214Z,1.70
2019-01-05T03:42:53.488Z,1.10
2019-01-05T03:46:31.618Z,1.25
2019-01-05T03:50:56.355Z,0.80
2019-01-05T03:54:47.804Z,0.80
2019-01-05T03:58:35.643Z,1.50
2019-01-05T04:01:57.391Z,1.23
2019-01-05T04:06:05.311Z,1.30
2019-01-05T04:10:03.838Z,1.12
2019-01-05T04:13:54.618Z,1.67
2019-01-05T04:17:42.897Z,1.20
2019-01-05T04:21:44.299Z,1.62
2019-01-05T04:25:10.194Z,1.60
2019-01-05T04:29:26.838Z,1.00
2019-01-05T04:33:01.489Z,1.77
2019-01-05T04:36:42.088Z,1.50
2019-01-05T04:40:40.879Z,1.27
2019-01-05T04:45:15.463Z,1.03
2019-01-05T04:49:10.142Z,1.40
2019-01-05T04:53:28.890Z,1.37
2019-01-05T04:57:28.389Z,1.17
2019-01-05T05:01:10.480Z,1.27
2019-01-05T05:05:06.208Z,1.30
2019-01-05T05:09:09.208Z,1.10
2019-01-05T05:13:16.709Z,1.15
2019-01-05T05:17:02.752Z,0.80
2019-01-05T05:20:59.259Z,2.03
2019-01-05T05:24:51.657Z,1.60
2019-01-05T05:29:00.323Z,1.07
2019-01-05T05:32:55.772Z,1.17
2019-01-05T05:36:43.771Z,1.30
2019-01-05T05:40:55.016Z,1.30
2019-01-05T05:44:50.756Z,1.32
2019-01-05T05:48:49.236Z,1.27
2019-01-05T05:52:42.254Z,0.90
2019-01-05T05:56:40.235Z,1.70
2019-01-05T06:00:23.851Z,1.37
2019-01-05T06:04:30.452Z,1.23
2019-01-05T06:08:13.614Z,1.75
2019-01-05T06:12:05.300Z,1.70
2019-01-05T06:15:38.616Z,1.60
2019-01-05T06:19:02.769Z,1.35
2019-01-05T06:23:00.982Z,2.27
2019-01-05T06:26:53.046Z,1.45
2019-01-05T06:30:52.343Z,1.80
2019-01-05T06:34:34.935Z,1.30
2019-01-05T06:38:33.859Z,1.65
2019-01-05T12:43:55.910Z,3.42
2019-01-05T12:47:58.035Z,4.05
2019-01-05T12:52:04.259Z,3.70
2019-01-05T12:56:06.411Z,3.83
2019-01-05T12:59:43.892Z,4.00
2019-01-05T13:03:21.496Z,3.90
2019-01-05T13:07:13.697Z,2.95
2019-01-05T13:10:56.456Z,3.70
2019-01-05T13:14:54.886Z,4.17
2019-01-05T13:19:10.020Z,3.40
2019-01-05T13:23:10.217Z,5.60
2019-01-05T13:27:30.298Z,4.30
2019-01-05T13:31:19.028Z,3.75
2019-01-05T13:34:59.507Z,4.50
2019-01-05T13:39:11.994Z,4.33
2019-01-05T13:43:04.191Z,4.70
2019-01-05T13:47:01.103Z,4.40
2019-01-05T13:50:46.504Z,5.00
2019-01-05T13:53:53.167Z,4.40
2019-01-05T13:57:08.040Z,4.15
2019-01-05T14:00:00.463Z,3.85
2019-01-05T14:02:48.870Z,3.45
2019-01-05T14:05:47.786Z,3.67
2019-01-05T14:08:36.772Z,3.55
2019-01-05T14:11:41.657Z,3.45
2019-01-05T14:14:29.845Z,4.30
2019-01-05T14:17:28.698Z,4.60
2019-01-05T14:20:36.247Z,5.37
2019-01-05T14:23:44.147Z,6.17
2019-01-05T14:26:38.864Z,8.05
2019-01-05T14:29:30.869Z,5.80
2019-01-05T14:32:20.386Z,7.03
2019-01-05T14:35:09.917Z,4.62
2019-01-05T14:38:00.375Z,8.60
2019-01-05T14:40:48.633Z,5.65
2019-01-05T14:43:36.957Z,4.83
2019-01-05T14:46:29.419Z,5.78
2019-01-05T14:49:34.001Z,5.03
2019-01-05T14:52:22.369Z,5.90
2019-01-05T14:55:18.793Z,4.80
2019-01-05T14:58:26.416Z,4.40
2019-01-05T15:01:14.544Z,4.05
2019-01-05T15:04:06.589Z,5.15
2019-01-05T15:07:11.199Z,4.22
2019-01-05T15:10:00.586Z,4.33
2019-01-05T15:12:49.980Z,5.50
2019-01-05T15:15:57.874Z,3.17
2019-01-05T15:18:46.036Z,4.30
2019-01-05T15:21:34.802Z,4.20
2019-01-05T15:24:39.531Z,3.67
2019-01-05T15:27:43.862Z,4.17
2019-01-05T15:30:32.419Z,4.62
2019-01-05T15:33:19.994Z,3.80
2019-01-05T15:36:08.030Z,4.10
2019-01-05T15:38:56.189Z,3.98
2019-01-05T15:41:41.715Z,4.10
2019-01-05T15:44:46.547Z,3.55
2019-01-05T15:47:40.303Z,4.00
2019-01-05T15:50:35.918Z,4.10
2019-01-05T15:53:24.121Z,5.55
2019-01-05T15:56:20.263Z,5.15
2019-01-05T15:59:09.648Z,4.25
2019-01-05T16:02:05.165Z,4.87
2019-01-05T16:05:06.744Z,5.37
2019-01-05T16:07:56.984Z,3.98
2019-01-05T16:10:43.246Z,4.83
2019-01-05T16:13:29.102Z,3.72
2019-01-05T16:16:17.289Z,4.00
2019-01-05T16:19:05.649Z,4.50
2019-01-05T16:21:54.066Z,5.10
2019-01-05T16:24:43.613Z,4.85
2019-01-05T16:27:32.013Z,4.53
2019-01-05T16:30:21.476Z,6.10
2019-01-05T16:33:09.517Z,5.37
2019-01-05T16:36:01.892Z,5.60
2019-01-05T16:39:00.130Z,5.42
2019-01-05T16:41:48.431Z,4.70
2019-01-05T16:44:36.763Z,4.85
2019-01-05T16:47:32.260Z,5.05
2019-01-05T16:50:40.114Z,5.15
2019-01-05T16:53:44.257Z,5.40
2019-01-05T16:56:45.388Z,5.53
2019-01-05T16:59:33.541Z,5.95
2019-01-05T17:02:28.108Z,6.62
2019-01-05T17:05:32.727Z,5.72
2019-01-05T17:08:27.992Z,4.28
2019-01-05T17:11:16.151Z,6.30
2019-01-05T17:14:17.645Z,6.70
2019-01-05T17:17:09.929Z,5.23
2019-01-05T17:20:01.121Z,5.35
2019-01-05T17:22:49.475Z,5.00
2019-01-05T17:25:51.032Z,5.60
2019-01-05T17:28:48.008Z,5.80
2019-01-05T17:31:43.485Z,5.75
2019-01-05T17:34:32.979Z,5.85
2019-01-05T17:37:22.369Z,6.30
2019-01-05T17:40:23.928Z,5.78
2019-01-05T17:43:25.704Z,7.30
2019-01-05T17:46:21.040Z,6.90
2019-01-05T17:49:29.011Z,6.87
2019-01-05T17:52:17.116Z,5.90
2019-01-05T17:55:20.116Z,7.97
2019-01-05T17:58:08.253Z,5.80
2019-01-05T18:01:00.686Z,5.97
2019-01-05T18:03:48.530Z,5.33
2019-01-05T18:06:46.782Z,5.35
2019-01-05T18:09:36.244Z,5.80
2019-01-05T18:12:24.844Z,5.25
2019-01-05T18:15:13.290Z,5.60
2019-01-05T18:18:01.712Z,6.05
2019-01-05T18:20:50.451Z,7.03
2019-01-05T18:23:52.336Z,7.17
2019-01-05T18:26:42.250Z,6.92
2019-01-05T18:29:30.405Z,6.63
2019-01-05T18:32:18.043Z,7.50
2019-01-05T18:35:19.620Z,6.40
2019-01-05T18:38:14.674Z,7.00
2019-01-05T22:58:30.595Z,7.00
2019-01-05T23:01:29.201Z,6.25
2019-01-05T23:04:21.015Z,6.28
2019-01-05T23:07:10.454Z,6.30
2019-01-05T23:10:06.102Z,7.07
2019-01-05T23:13:10.672Z,6.60
2019-01-05T23:16:09.287Z,6.50
2019-01-05T23:18:58.756Z,6.15
2019-01-05T23:21:54.149Z,6.17
2019-01-05T23:24:38.542Z,6.55
2019-01-05T23:27:21.265Z,6.10
2019-01-05T23:30:09.437Z,6.35
2019-01-05T23:33:13.262Z,5.90
2019-01-05T23:36:05.725Z,4.93
2019-01-05T23:38:59.340Z,5.83
2019-01-05T23:41:47.641Z,5.50
2019-01-05T23:44:49.162Z,5.55
2019-01-05T23:47:44.913Z,5.78
2019-01-05T23:50:49.737Z,6.30
2019-01-05T23:53:37.788Z,5.50
2019-01-05T23:56:42.388Z,6.07
2019-01-05T23:59:30.099Z,5.47
